Bookmark and Share
Track history (hours):
 

Bright Hope

Last reported at 2014-Apr-22 02:08 UTC. Time now 2014-Apr-24 11:01 UTC.
Position N 22°49' E 120°01'.

Length 170 m; draft 5.6 m.

Type: Cargo ship. MMSI: 371117000.

NotesDate/timePositionNaut miles runAvg speedWind from/ knotsBaromVisibWave heightAir tempDewpointWater temp
2014-Apr-22 02:08N 22°49' E 120°01'712.2
2014-Apr-22 01:33N 22°44' E 120°06'1110.9
2014-Apr-22 00:33N 22°37' E 120°15'3 1.2
2014-Apr-21 22:24N 22°36' E 120°18'0 0.0
2014-Apr-21 21:12N 22°36' E 120°18'0 0.0
2014-Apr-21 20:30N 22°36' E 120°18'0 0.0
2014-Apr-21 19:30N 22°36' E 120°18'0 0.0
2014-Apr-21 18:30N 22°36' E 120°18'0 0.0
2014-Apr-21 17:30N 22°36' E 120°18'0 0.0
2014-Apr-21 16:30N 22°36' E 120°18'0 0.0
2014-Apr-21 15:30N 22°36' E 120°18'0 0.0
2014-Apr-21 14:30N 22°36' E 120°18'0 0.0
2014-Apr-21 13:24N 22°36' E 120°18'0 0.0
2014-Apr-21 12:12N 22°36' E 120°18'0 0.0
2014-Apr-21 11:30N 22°36' E 120°18'0 0.0
2014-Apr-21 10:30N 22°36' E 120°18'0 0.0
2014-Apr-21 09:30N 22°36' E 120°18'0 0.0
2014-Apr-21 08:30N 22°36' E 120°18'0 0.0
2014-Apr-21 07:30N 22°36' E 120°18'0 0.0
2014-Apr-21 06:30N 22°36' E 120°18'0 0.0
2014-Apr-21 05:24N 22°36' E 120°18'0 0.0
2014-Apr-21 04:30N 22°36' E 120°18'0 0.0
2014-Apr-21 03:30N 22°36' E 120°18'0 0.0
2014-Apr-21 02:30N 22°36' E 120°18'0 0.0
2014-Apr-21 01:30N 22°36' E 120°18'0 0.3
2014-Apr-21 00:33N 22°36' E 120°18'4 4.0
2014-Apr-20 23:27N 22°37' E 120°13'5 5.5
2014-Apr-20 22:33N 22°40' E 120°08'9 9.1
2014-Apr-20 21:33N 22°47' E 120°02'7 6.8
2014-Apr-20 20:31N 22°53' E 119°60'  
2014-Apr-16 23:28N 34°05' E 134°56'1011.4
2014-Apr-16 22:34N 34°14' E 135°03'4 3.5
2014-Apr-16 21:30N 34°14' E 135°07'0 0.0
2014-Apr-16 20:33N 34°14' E 135°07'0 0.0
2014-Apr-16 19:30N 34°14' E 135°07'0 0.0
2014-Apr-16 18:27N 34°14' E 135°07'0 0.0
2014-Apr-16 17:33N 34°14' E 135°07'0 0.0
2014-Apr-16 16:33N 34°14' E 135°07'0 0.0
2014-Apr-16 15:30N 34°14' E 135°07'0 0.0
2014-Apr-16 14:30N 34°14' E 135°07'0 0.0
2014-Apr-16 13:27N 34°14' E 135°07'0 0.0
2014-Apr-16 12:33N 34°14' E 135°07'0 0.0
2014-Apr-16 11:33N 34°14' E 135°07'0 0.0
2014-Apr-16 10:33N 34°14' E 135°07'0 0.0
2014-Apr-16 09:33N 34°14' E 135°07'0 0.0
2014-Apr-16 08:33N 34°14' E 135°07'0 0.0
2014-Apr-16 07:33N 34°14' E 135°07'0 0.0
2014-Apr-16 06:33N 34°14' E 135°07'0 0.0
2014-Apr-16 05:30N 34°14' E 135°07'0 0.0
2014-Apr-16 04:30N 34°14' E 135°07'0 0.0
2014-Apr-16 03:27N 34°14' E 135°07'0 0.0
2014-Apr-16 02:33N 34°14' E 135°07'0 0.0
2014-Apr-16 01:24N 34°14' E 135°07'0 0.0
2014-Apr-15 23:15N 34°14' E 135°07'0 0.0
2014-Apr-15 22:21N 34°14' E 135°07'0 0.0
2014-Apr-15 21:33N 34°14' E 135°07'0 0.0
2014-Apr-15 20:33N 34°14' E 135°07'0 0.0
2014-Apr-15 19:33N 34°14' E 135°07'0 0.0
2014-Apr-15 18:33N 34°14' E 135°07'0 0.0
2014-Apr-15 17:33N 34°14' E 135°07'0 0.0
2014-Apr-15 16:33N 34°14' E 135°07'0 0.0
2014-Apr-15 15:33N 34°14' E 135°07'0 0.0
2014-Apr-15 14:33N 34°14' E 135°07'0 0.0
2014-Apr-15 12:33N 34°14' E 135°07'0 0.0
2014-Apr-15 11:30N 34°14' E 135°07'0 0.0
2014-Apr-15 10:30N 34°14' E 135°07'0 0.0
2014-Apr-15 09:33N 34°14' E 135°07'0 0.0
2014-Apr-15 08:33N 34°14' E 135°07'0 0.0
2014-Apr-15 07:30N 34°14' E 135°07'0 0.0
2014-Apr-15 06:33N 34°14' E 135°07'0 0.0
2014-Apr-15 05:30N 34°14' E 135°07'0 0.0
2014-Apr-15 02:30N 34°14' E 135°07'0 0.0
2014-Apr-15 01:33N 34°14' E 135°07'0 0.0
2014-Apr-15 00:30N 34°14' E 135°07'0 0.0
2014-Apr-14 23:33N 34°14' E 135°07'0 0.0
2014-Apr-14 22:33N 34°14' E 135°07'0 0.0
2014-Apr-14 21:33N 34°14' E 135°07'0 0.0
2014-Apr-14 20:30N 34°14' E 135°07'0 0.0
2014-Apr-14 19:33N 34°14' E 135°07'0 0.0
2014-Apr-14 18:33N 34°14' E 135°07'0 0.0
2014-Apr-14 17:33N 34°14' E 135°07'0 0.0
2014-Apr-14 16:33N 34°14' E 135°07'0 0.0
2014-Apr-14 15:33N 34°14' E 135°07'0 0.0
2014-Apr-14 14:33N 34°14' E 135°07'0 0.0
2014-Apr-14 13:30N 34°14' E 135°07'0 0.0
2014-Apr-14 11:30N 34°14' E 135°07'0 0.0
2014-Apr-14 05:30N 34°14' E 135°07'0 0.0
2014-Apr-13 22:33N 34°14' E 135°07'0 0.0
2014-Apr-13 21:33N 34°14' E 135°07'0 0.0
2014-Apr-13 20:33N 34°14' E 135°07'0 0.0
2014-Apr-13 19:33N 34°14' E 135°07'0 0.0
2014-Apr-13 18:33N 34°14' E 135°07'0 0.0
2014-Apr-13 17:33N 34°14' E 135°07'0 0.0
2014-Apr-13 16:33N 34°14' E 135°07'0 0.0
2014-Apr-13 15:33N 34°14' E 135°07'0 0.0
2014-Apr-13 14:27N 34°14' E 135°07'0 0.0
2014-Apr-13 12:27N 34°14' E 135°07'0 0.0
2014-Apr-13 11:27N 34°14' E 135°07'0 0.0
2014-Apr-13 10:33N 34°14' E 135°07'0 0.0
2014-Apr-13 09:33N 34°14' E 135°07'0 0.0
2014-Apr-13 08:33N 34°14' E 135°07'0 0.0
2014-Apr-13 07:33N 34°14' E 135°07'0 0.0
2014-Apr-13 06:33N 34°14' E 135°07'0 0.0
2014-Apr-13 05:33N 34°14' E 135°07'0 0.0
2014-Apr-13 04:33N 34°14' E 135°07'0 0.0
2014-Apr-13 03:33N 34°14' E 135°07'0 0.0
2014-Apr-13 02:33N 34°14' E 135°07'0 0.0
2014-Apr-13 01:33N 34°14' E 135°07'0 0.0
2014-Apr-13 00:33N 34°14' E 135°07'0 0.0
2014-Apr-12 23:33N 34°14' E 135°07'2 1.9
2014-Apr-12 22:33N 34°14' E 135°05'0 0.1
2014-Apr-12 21:33N 34°14' E 135°05'0 0.0
2014-Apr-12 20:33N 34°14' E 135°05'0 0.0
2014-Apr-12 19:33N 34°14' E 135°05'0 0.0
2014-Apr-12 18:33N 34°14' E 135°05'0 0.0
2014-Apr-12 17:33N 34°14' E 135°05'0 0.0
2014-Apr-12 16:33N 34°14' E 135°05'0 0.0
2014-Apr-12 15:33N 34°14' E 135°05'0 0.1
2014-Apr-12 14:30N 34°14' E 135°05'0 0.0
2014-Apr-12 13:30N 34°14' E 135°05'0 0.1
2014-Apr-12 12:33N 34°14' E 135°05'0 0.1
2014-Apr-12 11:33N 34°14' E 135°05'0 0.1
2014-Apr-12 10:30N 34°14' E 135°05'0 0.1
2014-Apr-12 09:33N 34°14' E 135°05'0 0.1
2014-Apr-12 08:33N 34°14' E 135°05'0 0.0
2014-Apr-12 07:33N 34°14' E 135°05'0 0.1
2014-Apr-12 06:33N 34°14' E 135°05'0 0.1
2014-Apr-12 05:33N 34°14' E 135°05'0 0.0
2014-Apr-12 04:30N 34°14' E 135°05'0 0.0
2014-Apr-12 03:24N 34°14' E 135°05'0 0.1
2014-Apr-12 02:30N 34°14' E 135°05'  

Dump ship's entire track history

sailing weather and tide predictions

Bright Hope — HPTM — position and weather